Time;durP1;ratioP1;P1;durP2;ratioP2;P2;SDS_P1;SDS_P2;PMS_P1;PMS_P2;Temp;Humidity;BMP_temperature;BMP_pressure;BME280_temperature;BME280_humidity;BME280_pressure;Samples;Min_cycle;Max_cycle;Signal;HPM_P1;HPM_P2
2023/12/06 00:00:56;;;;;;;80.50;28.73;;;;;;;-1.03;100.00;100338.19;7393266;19;20142;-44
2023/12/06 00:03:25;;;;;;;74.65;26.95;;;;;;;-1.03;100.00;100341.59;7369376;19;20202;-43
2023/12/06 00:05:55;;;;;;;76.65;28.77;;;;;;;-1.07;100.00;100334.53;7395919;19;20206;-44
2023/12/06 00:08:27;;;;;;;79.78;28.17;;;;;;;-1.03;100.00;100338.19;7371270;19;20198;-44
2023/12/06 00:10:57;;;;;;;72.53;26.25;;;;;;;-1.12;100.00;100335.81;7394445;19;20159;-44
2023/12/06 00:13:27;;;;;;;72.88;25.73;;;;;;;-1.16;100.00;100336.31;7370839;19;20281;-45
2023/12/06 00:15:57;;;;;;;79.18;25.95;;;;;;;-1.11;100.00;100340.09;7395580;19;20501;-44
2023/12/06 00:18:27;;;;;;;77.80;28.88;;;;;;;-1.01;100.00;100345.16;7371638;19;20205;-43
2023/12/06 00:20:57;;;;;;;86.20;26.80;;;;;;;-0.75;100.00;100336.25;7395182;19;20511;-44
2023/12/06 00:23:29;;;;;;;75.82;28.42;;;;;;;-0.59;100.00;100334.94;7371317;19;20208;-44
2023/12/06 00:25:59;;;;;;;85.05;30.67;;;;;;;-0.57;100.00;100338.47;7395581;19;20214;-44
2023/12/06 00:28:29;;;;;;;90.07;30.02;;;;;;;-0.39;100.00;100333.09;7372405;19;20221;-45
2023/12/06 00:30:58;;;;;;;110.22;37.35;;;;;;;-0.33;100.00;100336.09;7396982;19;20145;-43
2023/12/06 00:33:28;;;;;;;77.65;27.00;;;;;;;-0.51;100.00;100341.47;7370277;19;20201;-44
2023/12/06 00:35:58;;;;;;;94.80;32.05;;;;;;;-0.53;100.00;100340.50;7395120;19;20146;-43
2023/12/06 00:38:31;;;;;;;79.68;29.30;;;;;;;-0.62;100.00;100339.78;7372137;19;20197;-43
2023/12/06 00:41:02;;;;;;;80.65;27.73;;;;;;;-0.64;100.00;100336.22;7394865;19;20139;-43
2023/12/06 00:43:31;;;;;;;76.55;28.25;;;;;;;-0.79;100.00;100336.75;7370169;19;20205;-43
2023/12/06 00:46:01;;;;;;;71.47;26.10;;;;;;;-0.76;100.00;100337.03;7395178;19;20146;-44
2023/12/06 00:48:30;;;;;;;63.63;24.30;;;;;;;-0.89;100.00;100336.75;7371556;19;20207;-43
2023/12/06 00:51:01;;;;;;;63.67;25.27;;;;;;;-0.87;100.00;100338.66;7396341;19;20162;-43
2023/12/06 00:53:34;;;;;;;74.15;25.35;;;;;;;-0.84;100.00;100338.03;7370662;19;20206;-44
2023/12/06 00:56:03;;;;;;;73.13;27.50;;;;;;;-0.80;100.00;100335.00;7395109;19;20143;-44
2023/12/06 00:58:33;;;;;;;64.60;24.58;;;;;;;-0.81;100.00;100333.22;7368366;19;20218;-45
2023/12/06 01:01:02;;;;;;;57.75;23.55;;;;;;;-0.83;100.00;100330.56;7393634;19;20614;-45
2023/12/06 01:03:32;;;;;;;65.25;24.38;;;;;;;-0.91;100.00;100334.13;7367284;19;20202;-44
2023/12/06 01:06:02;;;;;;;68.25;27.15;;;;;;;-0.91;100.00;100331.59;7394431;19;20142;-44
2023/12/06 01:08:34;;;;;;;67.53;24.63;;;;;;;-0.92;100.00;100339.06;7368331;19;20190;-45
2023/12/06 01:11:04;;;;;;;65.03;25.02;;;;;;;-0.86;100.00;100348.03;7393079;19;20570;-44
2023/12/06 01:13:33;;;;;;;60.67;22.98;;;;;;;-0.93;100.00;100355.03;7370284;19;20213;-43
2023/12/06 01:16:03;;;;;;;58.15;22.88;;;;;;;-0.96;100.00;100354.00;7394150;19;20139;-44
2023/12/06 01:18:33;;;;;;;68.13;26.20;;;;;;;-0.83;100.00;100349.94;7368921;19;20259;-44
2023/12/06 01:21:03;;;;;;;62.45;24.88;;;;;;;-0.91;100.00;100356.03;7395108;19;20513;-44
2023/12/06 01:23:35;;;;;;;61.88;24.38;;;;;;;-0.86;100.00;100349.69;7369619;19;20209;-44
2023/12/06 01:26:05;;;;;;;65.43;24.38;;;;;;;-0.89;100.00;100349.44;7394563;19;20146;-43
2023/12/06 01:28:35;;;;;;;72.95;25.73;;;;;;;-0.89;100.00;100354.50;7369584;19;20702;-43
2023/12/06 01:31:04;;;;;;;61.55;25.27;;;;;;;-0.80;100.00;100355.25;7393739;19;20214;-43
2023/12/06 01:33:34;;;;;;;77.00;24.77;;;;;;;-0.80;100.00;100355.25;7368550;19;20201;-43
2023/12/06 01:36:04;;;;;;;75.35;27.23;;;;;;;-0.88;100.00;100361.38;7393906;19;20240;-44
2023/12/06 01:38:36;;;;;;;71.63;25.27;;;;;;;-0.87;100.00;100363.13;7369305;19;20207;-43
2023/12/06 01:41:06;;;;;;;63.42;24.90;;;;;;;-0.89;100.00;100370.59;7394999;19;20254;-43
2023/12/06 01:43:36;;;;;;;73.72;24.70;;;;;;;-0.91;100.00;100356.94;7367573;19;20194;-43
2023/12/06 01:46:06;;;;;;;62.67;23.63;;;;;;;-0.93;100.00;100365.16;7393639;19;20512;-44
2023/12/06 01:48:37;;;;;;;69.30;23.88;;;;;;;-0.93;100.00;100360.09;7370205;19;20198;-43
2023/12/06 01:51:07;;;;;;;81.25;25.02;;;;;;;-0.89;100.00;100360.47;7392529;19;20146;-43
2023/12/06 01:53:39;;;;;;;70.03;26.17;;;;;;;-0.97;100.00;100357.31;7368569;19;20210;-43
2023/12/06 01:56:10;;;;;;;77.75;24.30;;;;;;;-0.84;100.00;100368.44;7392536;19;20223;-43
2023/12/06 01:58:41;;;;;;;76.40;27.08;;;;;;;-0.84;100.00;100370.97;7368704;19;20293;-44
2023/12/06 02:01:10;;;;;;;60.17;23.90;;;;;;;-0.92;100.00;100364.41;7392758;19;20143;-45
2023/12/06 02:03:40;;;;;;;75.15;26.63;;;;;;;-0.95;100.00;100375.16;7366201;19;20632;-44
2023/12/06 02:06:11;;;;;;;104.32;34.20;;;;;;;-0.80;100.00;100367.94;7395076;19;20142;-43
2023/12/06 02:08:44;;;;;;;76.07;28.27;;;;;;;-0.81;100.00;100376.28;7368320;19;20190;-44
2023/12/06 02:11:14;;;;;;;71.38;26.98;;;;;;;-0.79;100.00;100387.44;7391904;19;20198;-44
2023/12/06 02:13:44;;;;;;;72.80;24.73;;;;;;;-0.78;100.00;100379.06;7367585;19;20202;-44
2023/12/06 02:16:13;;;;;;;70.75;27.25;;;;;;;-0.77;100.00;100379.97;7391223;19;20211;-44
2023/12/06 02:18:43;;;;;;;65.55;26.15;;;;;;;-0.89;100.00;100388.34;7368103;19;20198;-44
2023/12/06 02:21:13;;;;;;;89.38;29.15;;;;;;;-0.84;100.00;100388.69;7390443;19;20163;-43
2023/12/06 02:23:48;;;;;;;82.25;28.08;;;;;;;-0.81;100.00;100383.91;7370328;19;20202;-45
2023/12/06 02:26:20;;;;;;;81.80;29.70;;;;;;;-0.69;100.00;100376.41;7397857;19;20205;-44
2023/12/06 02:28:56;;;;;;;80.70;29.40;;;;;;;-0.78;100.00;100374.00;7375638;19;20197;-43
2023/12/06 02:31:25;;;;;;;86.50;31.35;;;;;;;-0.81;100.00;100366.16;7400160;19;20142;-43
2023/12/06 02:33:55;;;;;;;69.20;24.52;;;;;;;-0.79;100.00;100371.31;7373948;19;20210;-43
2023/12/06 02:36:25;;;;;;;71.07;26.17;;;;;;;-0.81;100.00;100368.69;7397513;19;20143;-44
2023/12/06 02:38:55;;;;;;;81.80;30.35;;;;;;;-0.85;100.00;100375.16;7370537;19;20194;-43
2023/12/06 02:41:28;;;;;;;81.45;29.45;;;;;;;-0.83;100.00;100370.19;7396941;19;20150;-43
2023/12/06 02:43:58;;;;;;;77.88;28.25;;;;;;;-0.83;100.00;100386.28;7374377;19;20273;-45
2023/12/06 02:46:27;;;;;;;78.93;27.40;;;;;;;-0.83;100.00;100380.34;7397015;19;20143;-44
2023/12/06 02:48:57;;;;;;;76.15;26.73;;;;;;;-0.75;100.00;100373.34;7374853;19;20202;-44
2023/12/06 02:51:27;;;;;;;75.38;27.83;;;;;;;-0.77;100.00;100380.81;7396984;19;20629;-45
2023/12/06 02:53:57;;;;;;;75.13;26.88;;;;;;;-0.73;100.00;100381.97;7372496;19;20205;-46
2023/12/06 02:56:29;;;;;;;70.10;28.05;;;;;;;-0.79;100.00;100372.22;7396863;19;20143;-44
2023/12/06 02:58:59;;;;;;;78.53;27.45;;;;;;;-0.64;100.00;100376.75;7374447;19;20261;-44
2023/12/06 03:01:28;;;;;;;77.60;26.80;;;;;;;-0.75;100.00;100365.75;7396404;19;20227;-44
2023/12/06 03:03:58;;;;;;;84.55;28.58;;;;;;;-0.75;100.00;100370.81;7371769;19;20198;-43
2023/12/06 03:06:28;;;;;;;72.15;26.60;;;;;;;-0.73;100.00;100367.66;7395610;19;20143;-44
2023/12/06 03:08:57;;;;;;;71.03;27.33;;;;;;;-0.75;100.00;100364.13;7374146;19;20198;-44
2023/12/06 03:11:29;;;;;;;70.45;27.00;;;;;;;-0.70;100.00;100367.91;7396450;19;20892;-43
2023/12/06 03:13:59;;;;;;;79.72;29.17;;;;;;;-0.72;100.00;100371.09;7372706;19;20219;-43
2023/12/06 03:16:29;;;;;;;76.80;27.92;;;;;;;-0.77;100.00;100368.16;7396610;19;20143;-43
2023/12/06 03:18:58;;;;;;;81.60;27.73;;;;;;;-0.81;100.00;100358.56;7374449;19;20261;-43
2023/12/06 03:21:28;;;;;;;82.75;28.80;;;;;;;-0.77;100.00;100365.63;7398008;19;20211;-42
2023/12/06 03:23:58;;;;;;;74.55;28.08;;;;;;;-0.75;100.00;100364.13;7372384;19;20586;-44
2023/12/06 03:26:30;;;;;;;80.60;29.05;;;;;;;-0.65;100.00;100364.84;7396115;19;20142;-44
2023/12/06 03:28:59;;;;;;;108.78;39.30;;;;;;;-0.46;100.00;100374.84;7374176;19;20216;-42
2023/12/06 03:31:29;;;;;;;117.70;38.53;;;;;;;-0.45;100.00;100369.84;7394119;19;20549;-43
2023/12/06 03:33:59;;;;;;;87.82;30.35;;;;;;;-0.50;100.00;100376.25;7369978;19;20198;-43
2023/12/06 03:36:28;;;;;;;91.57;32.13;;;;;;;-0.33;100.00;100379.22;7394098;19;20142;-43
2023/12/06 03:38:58;;;;;;;84.30;29.05;;;;;;;-0.33;100.00;100366.53;7374130;19;20205;-44
2023/12/06 03:41:31;;;;;;;96.00;31.70;;;;;;;-0.20;100.00;100368.41;7397329;19;20160;-43
2023/12/06 03:44:00;;;;;;;96.53;33.13;;;;;;;-0.35;100.00;100365.53;7371640;19;20221;-43
2023/12/06 03:46:32;;;;;;;84.45;29.23;;;;;;;-0.44;100.00;100368.22;7396081;19;20163;-45
2023/12/06 03:49:01;;;;;;;74.68;27.95;;;;;;;-0.44;100.00;100366.59;7373475;19;20190;-43
2023/12/06 03:51:31;;;;;;;86.53;29.17;;;;;;;-0.49;100.00;100367.88;7395165;19;20158;-43
2023/12/06 03:54:01;;;;;;;79.68;28.70;;;;;;;-0.59;100.00;100370.41;7369634;19;20198;-44
2023/12/06 03:56:33;;;;;;;79.38;28.30;;;;;;;-0.59;100.00;100380.56;7396220;19;20139;-43
2023/12/06 03:59:04;;;;;;;76.95;27.85;;;;;;;-0.66;100.00;100380.81;7372389;19;20554;-42
2023/12/06 04:01:33;;;;;;;75.57;27.00;;;;;;;-0.69;100.00;100379.81;7395670;19;20162;-43
2023/12/06 04:04:03;;;;;;;70.63;26.80;;;;;;;-0.66;100.00;100378.28;7369224;19;20198;-43
2023/12/06 04:06:33;;;;;;;72.00;29.30;;;;;;;-0.77;100.00;100369.81;7389770;19;20170;-43
2023/12/06 04:09:02;;;;;;;101.75;37.17;;;;;;;-0.64;100.00;100377.66;7372304;19;20270;-43
2023/12/06 04:11:35;;;;;;;81.93;29.40;;;;;;;-0.66;100.00;100375.75;7394676;19;20162;-43
2023/12/06 04:14:04;;;;;;;86.78;32.55;;;;;;;-0.73;100.00;100377.78;7370961;19;20210;-42
2023/12/06 04:16:34;;;;;;;74.57;27.08;;;;;;;-0.80;100.00;100375.53;7394979;19;20643;-43
2023/12/06 04:19:03;;;;;;;71.00;27.50;;;;;;;-0.72;100.00;100379.56;7372725;19;20260;-44
2023/12/06 04:21:33;;;;;;;80.93;27.98;;;;;;;-0.67;100.00;100377.38;7393971;19;20615;-44
2023/12/06 04:24:03;;;;;;;75.97;28.35;;;;;;;-0.72;100.00;100381.22;7370691;19;20210;-43
2023/12/06 04:26:35;;;;;;;71.78;26.48;;;;;;;-0.89;100.00;100385.78;7394641;19;20142;-42
2023/12/06 04:29:05;;;;;;;77.07;28.45;;;;;;;-0.89;100.00;100389.97;7372231;19;20194;-41
2023/12/06 04:31:35;;;;;;;74.38;27.85;;;;;;;-0.93;100.00;100391.38;7394229;19;20147;-42
2023/12/06 04:34:05;;;;;;;79.53;28.65;;;;;;;-0.93;100.00;100393.91;7371094;19;20202;-41
2023/12/06 04:36:34;;;;;;;83.82;28.88;;;;;;;-0.94;100.00;100398.84;7395858;19;20157;-42
2023/12/06 04:39:04;;;;;;;80.03;27.77;;;;;;;-1.02;100.00;100399.09;7371821;19;20190;-43
2023/12/06 04:41:36;;;;;;;78.25;28.45;;;;;;;-1.04;100.00;100399.75;7393920;19;20139;-43
2023/12/06 04:44:06;;;;;;;73.53;28.45;;;;;;;-1.10;100.00;100400.09;7370347;19;20225;-41
2023/12/06 04:46:36;;;;;;;76.50;28.38;;;;;;;-1.16;100.00;100407.19;7391004;19;20205;-44
2023/12/06 04:49:06;;;;;;;99.95;31.40;;;;;;;-1.20;100.00;100405.16;7369799;19;20245;-41
2023/12/06 04:51:35;;;;;;;83.20;27.60;;;;;;;-1.22;100.00;100416.06;7393740;19;20162;-41
2023/12/06 04:54:05;;;;;;;77.82;28.63;;;;;;;-1.19;100.00;100412.03;7370400;19;20210;-42
2023/12/06 04:56:37;;;;;;;88.47;30.08;;;;;;;-1.22;100.00;100408.47;7393595;19;20151;-42
2023/12/06 04:59:07;;;;;;;77.88;28.70;;;;;;;-1.20;100.00;100421.25;7369659;19;20207;-45
2023/12/06 05:01:36;;;;;;;82.43;28.27;;;;;;;-1.22;100.00;100421.13;7392786;19;20146;-43
2023/12/06 05:04:06;;;;;;;78.93;30.60;;;;;;;-1.24;100.00;100425.19;7368067;19;20270;-41
2023/12/06 05:06:36;;;;;;;82.05;29.55;;;;;;;-1.27;100.00;100432.50;7394048;19;20142;-41
2023/12/06 05:09:07;;;;;;;76.68;28.15;;;;;;;-1.25;100.00;100437.69;7370981;19;20226;-42
2023/12/06 05:11:39;;;;;;;83.78;29.73;;;;;;;-1.25;100.00;100436.06;7393452;19;20198;-42
2023/12/06 05:14:09;;;;;;;83.00;30.70;;;;;;;-1.27;100.00;100436.69;7369846;19;20709;-43
2023/12/06 05:16:38;;;;;;;92.50;32.75;;;;;;;-1.22;100.00;100445.56;7391997;19;20501;-44
2023/12/06 05:19:08;;;;;;;77.93;30.42;;;;;;;-1.22;100.00;100471.75;7367866;19;20192;-41
2023/12/06 05:21:38;;;;;;;82.95;30.55;;;;;;;-1.18;100.00;100484.69;7384969;19;20175;-43
2023/12/06 05:24:09;;;;;;;88.57;28.95;;;;;;;-1.19;100.00;100490.53;7363505;19;20201;-43
2023/12/06 05:26:41;;;;;;;85.15;30.10;;;;;;;-1.22;100.00;100497.06;7388908;19;20163;-43
2023/12/06 05:29:11;;;;;;;91.90;31.60;;;;;;;-1.15;100.00;100502.66;7365590;19;20659;-43
2023/12/06 05:31:40;;;;;;;88.35;29.23;;;;;;;-1.12;100.00;100508.88;7388526;19;20161;-43
2023/12/06 05:34:10;;;;;;;92.20;29.83;;;;;;;-1.12;100.00;100508.88;7364687;19;20265;-43
2023/12/06 05:36:40;;;;;;;81.85;29.00;;;;;;;-1.03;100.00;100518.88;7388371;19;20142;-44
2023/12/06 05:39:10;;;;;;;91.82;31.98;;;;;;;-0.96;100.00;100523.72;7366354;19;20198;-42
2023/12/06 05:41:42;;;;;;;88.30;28.60;;;;;;;-0.94;100.00;100523.84;7394271;19;20147;-42
2023/12/06 05:44:12;;;;;;;76.07;27.02;;;;;;;-0.96;100.00;100531.31;7368646;19;20198;-45
2023/12/06 05:46:42;;;;;;;86.57;30.05;;;;;;;-1.01;100.00;100531.69;7394752;19;20565;-43
2023/12/06 05:49:12;;;;;;;91.93;29.83;;;;;;;-1.02;100.00;100535.84;7369750;19;20190;-45
2023/12/06 05:51:41;;;;;;;86.68;30.77;;;;;;;-0.89;100.00;100532.72;7392266;19;20218;-44
2023/12/06 05:54:11;;;;;;;94.68;32.38;;;;;;;-0.87;100.00;100530.34;7368611;19;20238;-43
2023/12/06 05:56:43;;;;;;;91.65;31.38;;;;;;;-0.92;100.00;100521.47;7392541;19;20147;-44
2023/12/06 05:59:13;;;;;;;85.18;29.70;;;;;;;-0.88;100.00;100508.28;7374731;19;20194;-44
2023/12/06 06:01:42;;;;;;;94.65;32.38;;;;;;;-0.87;100.00;100515.13;7398383;19;20222;-45
2023/12/06 06:04:12;;;;;;;85.78;30.20;;;;;;;-0.82;100.00;100508.81;7372327;19;20226;-43
2023/12/06 06:06:42;;;;;;;85.05;27.67;;;;;;;-0.88;100.00;100511.69;7398701;19;20163;-44
2023/12/06 06:09:13;;;;;;;90.85;31.88;;;;;;;-0.86;100.00;100514.38;7376724;19;20190;-44
2023/12/06 06:11:47;;;;;;;98.25;30.58;;;;;;;-0.79;100.00;100516.66;7398240;19;20138;-44
2023/12/06 06:14:16;;;;;;;99.28;32.65;;;;;;;-0.63;100.00;100531.47;7373589;19;20277;-43
2023/12/06 06:16:46;;;;;;;89.85;30.33;;;;;;;-0.64;100.00;100531.34;7402199;19;20165;-44
2023/12/06 06:19:15;;;;;;;94.40;32.45;;;;;;;-0.68;100.00;100538.72;7375719;19;20201;-46
2023/12/06 06:21:45;;;;;;;100.10;31.88;;;;;;;-0.76;100.00;100529.59;7398693;19;20537;-47
2023/12/06 06:24:15;;;;;;;97.22;31.77;;;;;;;-0.71;100.00;100532.50;7374181;19;20206;-47
2023/12/06 06:26:47;;;;;;;98.20;33.97;;;;;;;-0.68;100.00;100536.19;7398506;19;20163;-47
2023/12/06 06:29:17;;;;;;;103.07;30.75;;;;;;;-0.77;100.00;100532.84;7375810;19;20660;-50
2023/12/06 06:31:47;;;;;;;110.88;34.72;;;;;;;-0.73;100.00;100529.84;7397473;19;20647;-48
2023/12/06 06:34:16;;;;;;;94.25;32.05;;;;;;;-0.61;100.00;100531.63;7373793;19;20257;-48
2023/12/06 06:36:46;;;;;;;102.40;35.50;;;;;;;-0.71;100.00;100533.38;7397899;19;20139;-52
2023/12/06 06:39:16;;;;;;;103.82;32.35;;;;;;;-0.75;100.00;100531.34;7375399;19;20190;-48
2023/12/06 06:41:48;;;;;;;107.28;33.53;;;;;;;-0.78;100.00;100526.03;7397792;19;20147;-51
2023/12/06 06:44:17;;;;;;;105.43;32.22;;;;;;;-0.80;100.00;100517.41;7374077;19;20269;-50
2023/12/06 06:46:47;;;;;;;98.40;32.05;;;;;;;-0.74;100.00;100520.47;7398753;19;20139;-49
2023/12/06 06:49:17;;;;;;;101.88;31.90;;;;;;;-0.80;100.00;100517.41;7375625;19;20194;-48
2023/12/06 06:51:46;;;;;;;106.18;32.83;;;;;;;-0.73;100.00;100522.22;7397200;19;20155;-50
2023/12/06 06:54:16;;;;;;;97.88;32.35;;;;;;;-0.72;100.00;100516.41;7373100;19;20198;-53
2023/12/06 06:56:49;;;;;;;101.43;32.72;;;;;;;-0.75;100.00;100518.69;7397551;19;20812;-51
2023/12/06 06:59:18;;;;;;;100.38;33.22;;;;;;;-0.63;100.00;100520.44;7374731;19;20194;-49
2023/12/06 07:01:48;;;;;;;98.28;33.45;;;;;;;-0.66;100.00;100522.75;7397501;19;20146;-54
2023/12/06 07:04:17;;;;;;;105.60;32.78;;;;;;;-0.66;100.00;100533.78;7371067;19;20691;-50
2023/12/06 07:06:49;;;;;;;112.05;35.20;;;;;;;-0.66;100.00;100535.41;7398881;19;20139;-51
2023/12/06 07:09:18;;;;;;;106.50;34.88;;;;;;;-0.64;100.00;100529.72;7374550;19;20190;-51
2023/12/06 07:11:50;;;;;;;102.22;34.15;;;;;;;-0.65;100.00;100527.03;7399297;19;20145;-49
2023/12/06 07:14:20;;;;;;;110.15;34.15;;;;;;;-0.72;100.00;100528.19;7375262;19;20194;-51
2023/12/06 07:16:50;;;;;;;98.10;32.53;;;;;;;-0.71;100.00;100533.38;7401879;19;20174;-50
2023/12/06 07:19:20;;;;;;;100.07;34.33;;;;;;;-0.73;100.00;100534.91;7376250;19;20194;-53
2023/12/06 07:21:49;;;;;;;109.85;34.55;;;;;;;-0.72;100.00;100538.34;7398655;19;20361;-52
2023/12/06 07:24:20;;;;;;;105.80;34.10;;;;;;;-0.69;100.00;100544.53;7374637;19;20225;-52
2023/12/06 07:26:52;;;;;;;112.45;35.97;;;;;;;-0.67;100.00;100542.13;7399450;19;20172;-53
2023/12/06 07:29:22;;;;;;;108.93;33.65;;;;;;;-0.65;100.00;100549.84;7374561;19;20238;-51
2023/12/06 07:31:52;;;;;;;104.57;33.40;;;;;;;-0.74;100.00;100543.25;7396286;19;20151;-50
2023/12/06 07:34:22;;;;;;;100.35;33.10;;;;;;;-0.74;100.00;100543.25;7372308;19;20206;-53
2023/12/06 07:37:01;;;;;;;113.03;36.65;;;;;;;-0.74;100.00;100548.34;7397221;19;20149;-49
2023/12/06 07:39:30;;;;;;;121.30;35.97;;;;;;;-0.67;100.00;100549.72;7372386;19;20194;-54
2023/12/06 07:42:02;;;;;;;104.78;33.67;;;;;;;-0.60;100.00;100556.19;7396874;19;20178;-52
2023/12/06 07:44:32;;;;;;;105.28;33.83;;;;;;;-0.49;100.00;100560.53;7371682;19;20261;-50
2023/12/06 07:47:01;;;;;;;105.40;35.58;;;;;;;-0.48;100.00;100562.28;7397101;19;20142;-50
2023/12/06 07:49:31;;;;;;;103.50;33.47;;;;;;;-0.51;100.00;100558.63;7374257;19;20194;-51
2023/12/06 07:52:01;;;;;;;101.60;35.15;;;;;;;-0.62;100.00;100558.59;7399922;19;20214;-51
2023/12/06 07:54:31;;;;;;;118.55;37.08;;;;;;;-0.66;100.00;100566.72;7372909;19;20265;-53
2023/12/06 07:57:03;;;;;;;115.22;35.90;;;;;;;-0.52;100.00;100567.84;7399251;19;20142;-55
2023/12/06 07:59:33;;;;;;;107.90;35.03;;;;;;;-0.64;100.00;100570.25;7373711;19;20658;-55
2023/12/06 08:02:02;;;;;;;128.82;38.05;;;;;;;-0.62;100.00;100566.19;7399381;19;20159;-55
2023/12/06 08:04:32;;;;;;;117.55;36.10;;;;;;;-0.63;100.00;100564.44;7371968;19;20202;-51
2023/12/06 08:07:02;;;;;;;126.53;38.00;;;;;;;-0.57;100.00;100562.41;7395944;19;20571;-50
2023/12/06 08:09:32;;;;;;;119.80;35.50;;;;;;;-0.55;100.00;100560.88;7374470;19;20201;-53
2023/12/06 08:12:04;;;;;;;123.18;34.55;;;;;;;-0.62;100.00;100567.88;7400124;19;20203;-52
2023/12/06 08:14:34;;;;;;;114.25;35.90;;;;;;;-0.59;100.00;100566.47;7373740;19;20594;-50
2023/12/06 08:17:03;;;;;;;114.25;35.92;;;;;;;-0.63;100.00;100568.59;7397583;19;20139;-54
2023/12/06 08:19:33;;;;;;;117.85;34.83;;;;;;;-0.63;100.00;100571.13;7374098;19;20207;-54
2023/12/06 08:22:03;;;;;;;115.15;36.35;;;;;;;-0.55;100.00;100571.00;7396128;19;20619;-53
2023/12/06 08:24:33;;;;;;;126.57;34.47;;;;;;;-0.61;100.00;100569.63;7375011;19;20198;-57
2023/12/06 08:27:05;;;;;;;123.95;36.72;;;;;;;-0.62;100.00;100572.94;7399302;19;20146;-52
2023/12/06 08:29:35;;;;;;;127.72;38.08;;;;;;;-0.72;100.00;100569.63;7374372;19;20207;-48
2023/12/06 08:32:05;;;;;;;128.55;37.35;;;;;;;-0.66;100.00;100571.78;7399049;19;20153;-52
2023/12/06 08:34:35;;;;;;;129.55;36.45;;;;;;;-0.58;100.00;100580.00;7372593;19;20198;-50
2023/12/06 08:37:05;;;;;;;115.72;37.95;;;;;;;-0.43;100.00;100586.38;7397349;19;20153;-50
2023/12/06 08:39:34;;;;;;;123.60;37.40;;;;;;;-0.48;100.00;100577.50;7372914;19;20190;-48
2023/12/06 08:42:07;;;;;;;124.00;37.45;;;;;;;-0.45;100.00;100577.75;7396335;19;20146;-53
2023/12/06 08:44:37;;;;;;;120.28;37.03;;;;;;;-0.44;100.00;100569.41;7372038;19;20221;-52
2023/12/06 08:47:07;;;;;;;127.22;38.67;;;;;;;-0.32;100.00;100569.50;7395601;19;20168;-50
2023/12/06 08:49:38;;;;;;;132.32;37.08;;;;;;;-0.36;100.00;100572.53;7373590;19;20186;-52
2023/12/06 08:52:10;;;;;;;123.80;37.50;;;;;;;-0.33;100.00;100571.91;7396215;19;20164;-48
2023/12/06 08:54:40;;;;;;;117.38;35.72;;;;;;;-0.34;100.00;100571.03;7372017;19;20217;-50
2023/12/06 08:57:13;;;;;;;138.48;39.65;;;;;;;-0.29;100.00;100579.03;7379313;19;20143;-48
2023/12/06 08:59:43;;;;;;;117.40;36.65;;;;;;;-0.35;100.00;100571.81;7394227;19;20143;-49
2023/12/06 09:02:13;;;;;;;115.05;36.33;;;;;;;-0.44;100.00;100573.56;7372272;19;20153;-51
2023/12/06 09:04:43;;;;;;;125.35;36.60;;;;;;;-0.43;100.00;100576.25;7393353;19;20182;-53
2023/12/06 09:07:13;;;;;;;118.00;36.60;;;;;;;-0.45;100.00;100576.88;7372693;19;20146;-49
2023/12/06 09:09:43;;;;;;;126.53;37.53;;;;;;;-0.43;100.00;100581.31;7392924;19;20150;-52
2023/12/06 09:12:15;;;;;;;121.10;36.30;;;;;;;-0.39;100.00;100587.53;7373264;19;20580;-51
2023/12/06 09:14:45;;;;;;;111.97;35.13;;;;;;;-0.46;100.00;100598.78;7393321;19;20230;-49
2023/12/06 09:17:14;;;;;;;117.00;36.95;;;;;;;-0.33;100.00;100600.72;7373077;19;20146;-51
2023/12/06 09:19:44;;;;;;;132.98;37.92;;;;;;;-0.37;100.00;100600.34;7392097;19;20221;-53
2023/12/06 09:22:15;;;;;;;138.18;40.55;;;;;;;-0.32;100.00;100593.97;7372951;19;20217;-51
2023/12/06 09:24:49;;;;;;;126.88;38.00;;;;;;;-0.29;100.00;100599.31;7393115;19;20249;-51
2023/12/06 09:27:22;;;;;;;112.38;37.40;;;;;;;-0.38;100.00;100594.38;7370515;19;20139;-49
2023/12/06 09:29:52;;;;;;;118.10;36.90;;;;;;;-0.34;100.00;100598.03;7392069;19;20150;-49
2023/12/06 09:32:21;;;;;;;111.60;35.58;;;;;;;-0.29;100.00;100601.84;7370363;19;20143;-52
2023/12/06 09:34:54;;;;;;;120.03;37.05;;;;;;;-0.32;100.00;100610.09;7392849;19;20182;-51
2023/12/06 09:37:24;;;;;;;123.82;36.58;;;;;;;-0.21;100.00;100607.56;7370261;19;20500;-50
2023/12/06 09:39:55;;;;;;;117.32;37.25;;;;;;;-0.09;100.00;100612.75;7391614;19;20139;-49
2023/12/06 09:42:28;;;;;;;119.10;36.22;;;;;;;-0.10;100.00;100616.91;7369961;19;20139;-49
2023/12/06 09:45:01;;;;;;;144.07;39.38;;;;;;;-0.11;100.00;100619.34;7392646;19;20184;-49
2023/12/06 09:47:31;;;;;;;127.10;36.00;;;;;;;-0.24;100.00;100619.97;7371690;19;20285;-50
2023/12/06 09:50:01;;;;;;;118.68;36.15;;;;;;;-0.37;100.00;100615.53;7393314;19;20604;-52
2023/12/06 09:52:30;;;;;;;127.95;37.53;;;;;;;-0.31;100.00;100621.13;7370150;19;20281;-51
2023/12/06 09:55:00;;;;;;;120.38;36.15;;;;;;;-0.31;100.00;100629.59;7391951;19;20625;-50
2023/12/06 09:57:32;;;;;;;125.82;37.03;;;;;;;-0.32;100.00;100634.53;7369523;19;20561;-51
2023/12/06 10:00:02;;;;;;;115.93;36.15;;;;;;;-0.26;100.00;100632.50;7391079;19;20147;-51
2023/12/06 10:02:32;;;;;;;116.35;37.42;;;;;;;-0.22;100.00;100626.06;7367624;19;20198;-53
2023/12/06 10:05:08;;;;;;;119.28;37.20;;;;;;;-0.23;100.00;100625.19;7391496;19;20142;-53
2023/12/06 10:07:38;;;;;;;189.77;52.00;;;;;;;0.14;100.00;100632.38;7369210;19;20229;-53
2023/12/06 10:10:15;;;;;;;144.32;43.10;;;;;;;0.44;100.00;100647.44;7392287;19;20143;-49
2023/12/06 10:12:52;;;;;;;130.73;39.63;;;;;;;0.60;100.00;100655.53;7369744;19;20197;-49
2023/12/06 10:15:22;;;;;;;131.80;40.83;;;;;;;0.48;100.00;100646.94;7391236;19;20142;-53
2023/12/06 10:17:52;;;;;;;139.77;38.80;;;;;;;0.49;100.00;100639.44;7369315;19;20198;-53
2023/12/06 10:20:22;;;;;;;166.03;40.43;;;;;;;0.57;100.00;100634.09;7390155;19;20153;-54
2023/12/06 10:22:52;;;;;;;140.95;45.58;;;;;;;0.58;100.00;100636.75;7368467;19;20396;-51
2023/12/06 10:25:22;;;;;;;122.57;39.67;;;;;;;0.55;100.00;100625.47;7392855;19;20138;-51
2023/12/06 10:27:54;;;;;;;149.70;42.70;;;;;;;0.57;100.00;100609.59;7369781;19;20210;-53
2023/12/06 10:30:23;;;;;;;137.18;42.90;;;;;;;0.54;100.00;100616.94;7391516;19;20639;-49
2023/12/06 10:32:54;;;;;;;139.32;40.58;;;;;;;0.60;100.00;100614.91;7369120;19;20190;-48
2023/12/06 10:35:25;;;;;;;150.85;41.65;;;;;;;0.67;100.00;100611.22;7392585;19;20150;-49
2023/12/06 10:37:55;;;;;;;134.50;39.28;;;;;;;0.69;100.00;100602.06;7369947;19;20218;-48
2023/12/06 10:40:26;;;;;;;116.00;36.55;;;;;;;0.52;100.00;100609.22;7390021;19;20214;-49
2023/12/06 10:43:03;;;;;;;124.07;38.80;;;;;;;0.46;100.00;100590.06;7367848;19;20210;-51
2023/12/06 10:45:35;;;;;;;142.73;41.03;;;;;;;0.27;100.00;100598.75;7396356;19;20395;-51
2023/12/06 10:48:06;;;;;;;133.97;38.97;;;;;;;0.28;100.00;100594.53;7376727;19;20406;-49
2023/12/06 10:50:37;;;;;;;144.13;39.63;;;;;;;0.17;100.00;100596.22;7396348;19;20407;-52
2023/12/06 10:53:07;;;;;;;136.60;39.53;;;;;;;0.22;100.00;100594.94;7376217;19;20435;-54
2023/12/06 10:55:37;;;;;;;118.87;38.33;;;;;;;0.20;100.00;100591.41;7397560;19;20140;-52
2023/12/06 10:58:11;;;;;;;132.60;39.23;;;;;;;0.06;100.00;100590.28;7374787;19;20403;-53
2023/12/06 11:00:44;;;;;;;130.63;39.85;;;;;;;-0.02;100.00;100594.72;7395419;19;20420;-48
2023/12/06 11:03:14;;;;;;;125.70;39.38;;;;;;;-0.01;100.00;100596.50;7374173;19;20205;-52
2023/12/06 11:05:47;;;;;;;120.47;37.00;;;;;;;0.00;100.00;100600.84;7395568;19;20151;-51
2023/12/06 11:08:32;;;;;;;115.73;38.83;;;;;;;0.03;100.00;100602.69;7375286;19;21126;-50
2023/12/06 11:11:15;;;;;;;134.50;37.83;;;;;;;0.04;100.00;100602.84;7393374;19;20407;-51
2023/12/06 11:13:53;;;;;;;121.57;37.42;;;;;;;0.07;100.00;100605.63;7373861;19;20786;-50